Time;durP1;ratioP1;P1;durP2;ratioP2;P2;SDS_P1;SDS_P2;PMS_P1;PMS_P2;Temp;Humidity;BMP_temperature;BMP_pressure;BME280_temperature;BME280_humidity;BME280_pressure;Samples;Min_cycle;Max_cycle;Signal;HPM_P1;HPM_P2
2022/03/09 00:01:10;;;;;;;20.25;9.30;;;;;;;;;;4930148;28;106329;-65
2022/03/09 00:03:37;;;;;;;17.52;10.00;;;;;;;;;;4922296;28;106125;-65
2022/03/09 00:06:03;;;;;;;19.73;9.82;;;;;;;;;;4933544;28;106886;-65
2022/03/09 00:08:30;;;;;;;20.48;10.38;;;;;;;;;;4930644;28;106394;-65
2022/03/09 00:10:56;;;;;;;17.15;9.38;;;;;;;;;;4929484;28;106238;-64
2022/03/09 00:13:24;;;;;;;19.55;9.27;;;;;;;;;;4929627;28;107494;-64
2022/03/09 00:15:51;;;;;;;18.02;9.20;;;;;;;;;;4930563;28;106001;-65
2022/03/09 00:18:19;;;;;;;21.25;9.45;;;;;;;;;;4929809;28;106766;-66
2022/03/09 00:20:45;;;;;;;18.08;9.60;;;;;;;;;;4928381;28;107464;-65
2022/03/09 00:23:12;;;;;;;25.00;9.52;;;;;;;;;;4929714;28;105782;-66
2022/03/09 00:25:39;;;;;;;20.17;8.98;;;;;;;;;;4931113;28;106463;-65
2022/03/09 00:28:05;;;;;;;17.50;9.27;;;;;;;;;;4932501;28;106210;-65
2022/03/09 00:30:32;;;;;;;20.52;9.35;;;;;;;;;;4929932;28;107405;-65
2022/03/09 00:32:58;;;;;;;22.35;9.88;;;;;;;;;;4928817;28;108636;-65
2022/03/09 00:35:25;;;;;;;25.70;10.30;;;;;;;;;;4930384;28;106025;-64
2022/03/09 00:37:52;;;;;;;21.95;10.35;;;;;;;;;;4895698;28;109355;-64
2022/03/09 00:40:19;;;;;;;23.23;10.10;;;;;;;;;;4929561;28;106888;-65
2022/03/09 00:42:45;;;;;;;21.50;10.00;;;;;;;;;;4930165;28;106995;-65
2022/03/09 00:45:11;;;;;;;22.50;10.18;;;;;;;;;;4929834;28;106779;-65
2022/03/09 00:47:38;;;;;;;22.42;9.90;;;;;;;;;;4932581;28;108188;-65
2022/03/09 00:50:05;;;;;;;21.35;10.20;;;;;;;;;;4929808;28;106648;-65
2022/03/09 00:52:32;;;;;;;19.42;10.60;;;;;;;;;;4929352;28;107955;-65
2022/03/09 00:54:58;;;;;;;20.25;10.80;;;;;;;;;;4928642;28;106210;-65
2022/03/09 00:57:25;;;;;;;19.70;9.68;;;;;;;;;;4930214;28;107165;-65
2022/03/09 00:59:51;;;;;;;23.02;9.38;;;;;;;;;;4929158;28;106844;-64
2022/03/09 01:02:17;;;;;;;19.63;9.38;;;;;;;;;;4928992;28;106000;-65
2022/03/09 01:04:44;;;;;;;20.85;9.85;;;;;;;;;;4919458;28;106899;-64
2022/03/09 01:07:10;;;;;;;20.58;9.63;;;;;;;;;;4928882;28;107084;-63
2022/03/09 01:09:40;;;;;;;19.83;9.68;;;;;;;;;;4932502;28;107657;-63
2022/03/09 01:12:06;;;;;;;19.42;9.23;;;;;;;;;;4928868;28;107402;-67
2022/03/09 01:14:33;;;;;;;20.83;10.10;;;;;;;;;;4930095;28;105610;-65
2022/03/09 01:17:00;;;;;;;18.17;10.18;;;;;;;;;;4929723;28;106674;-66
2022/03/09 01:19:27;;;;;;;23.55;10.20;;;;;;;;;;4928408;28;107641;-65
2022/03/09 01:21:53;;;;;;;22.50;10.35;;;;;;;;;;4926514;28;107999;-65
2022/03/09 01:24:20;;;;;;;21.02;10.68;;;;;;;;;;4927885;28;106716;-65
2022/03/09 01:26:46;;;;;;;19.55;10.52;;;;;;;;;;4927164;28;107373;-65
2022/03/09 01:29:12;;;;;;;22.58;10.32;;;;;;;;;;4928687;28;106238;-64
2022/03/09 01:31:39;;;;;;;20.65;11.13;;;;;;;;;;4932512;28;106740;-64
2022/03/09 01:34:06;;;;;;;21.23;9.68;;;;;;;;;;4928851;28;105789;-63
2022/03/09 01:36:32;;;;;;;21.63;9.60;;;;;;;;;;4928090;28;110146;-64
2022/03/09 01:38:58;;;;;;;18.27;8.93;;;;;;;;;;4927305;28;107036;-64
2022/03/09 01:41:25;;;;;;;18.20;9.30;;;;;;;;;;4929788;28;106786;-66
2022/03/09 01:44:24;;;;;;;17.90;8.75;;;;;;;;;;4918023;28;106311;-65
2022/03/09 01:46:53;;;;;;;17.52;9.02;;;;;;;;;;4890140;28;109090;-64
2022/03/09 01:49:20;;;;;;;18.65;9.02;;;;;;;;;;4924446;28;106109;-64
2022/03/09 01:51:47;;;;;;;20.40;9.43;;;;;;;;;;4911306;28;106928;-65
2022/03/09 01:54:14;;;;;;;19.13;9.23;;;;;;;;;;4924078;28;106754;-64
2022/03/09 01:56:41;;;;;;;21.02;9.82;;;;;;;;;;4928867;28;107305;-64
2022/03/09 01:59:09;;;;;;;18.73;9.93;;;;;;;;;;4927784;28;106694;-66
2022/03/09 02:01:35;;;;;;;17.55;10.00;;;;;;;;;;4929314;28;106221;-64
2022/03/09 02:04:03;;;;;;;19.73;8.85;;;;;;;;;;4928323;28;106917;-64
2022/03/09 02:06:33;;;;;;;20.42;9.75;;;;;;;;;;4927891;28;107662;-64
2022/03/09 02:11:46;;;;;;;19.88;10.13;;;;;;;;;;4926430;28;106792;-64
2022/03/09 02:14:24;;;;;;;19.83;9.68;;;;;;;;;;4927595;28;108013;-64
2022/03/09 02:16:51;;;;;;;20.75;10.55;;;;;;;;;;4925598;28;107883;-64
2022/03/09 02:19:17;;;;;;;20.60;10.60;;;;;;;;;;4926741;28;107083;-64
2022/03/09 02:21:45;;;;;;;21.13;10.15;;;;;;;;;;4928658;28;106210;-64
2022/03/09 02:24:12;;;;;;;20.35;10.40;;;;;;;;;;4926729;28;107321;-64
2022/03/09 02:26:38;;;;;;;21.80;9.93;;;;;;;;;;4928633;28;107700;-64
2022/03/09 02:29:05;;;;;;;21.85;9.75;;;;;;;;;;4928928;28;106035;-64
2022/03/09 02:31:31;;;;;;;20.63;10.25;;;;;;;;;;4928863;28;105608;-64
2022/03/09 02:33:58;;;;;;;19.85;9.95;;;;;;;;;;4926956;28;107720;-64
2022/03/09 02:36:24;;;;;;;27.83;10.18;;;;;;;;;;4923721;28;106714;-64
2022/03/09 02:38:50;;;;;;;20.17;9.90;;;;;;;;;;4925747;28;107390;-64
2022/03/09 02:41:17;;;;;;;26.05;10.15;;;;;;;;;;4928299;28;105814;-64
2022/03/09 02:43:43;;;;;;;22.15;9.60;;;;;;;;;;4928402;28;106016;-64
2022/03/09 02:46:09;;;;;;;21.10;9.93;;;;;;;;;;4926897;28;108088;-65
2022/03/09 02:48:36;;;;;;;18.73;9.77;;;;;;;;;;4923986;28;106844;-64
2022/03/09 02:51:02;;;;;;;23.52;10.18;;;;;;;;;;4928211;28;105878;-64
2022/03/09 02:53:29;;;;;;;19.10;9.40;;;;;;;;;;4927933;28;107504;-64
2022/03/09 02:55:55;;;;;;;19.73;9.82;;;;;;;;;;4926115;28;106716;-66
2022/03/09 02:58:21;;;;;;;19.40;9.15;;;;;;;;;;4932213;28;106455;-64
2022/03/09 03:00:48;;;;;;;22.10;9.65;;;;;;;;;;4926506;28;106921;-64
2022/03/09 03:03:14;;;;;;;19.60;9.85;;;;;;;;;;4926221;28;106371;-64
2022/03/09 03:05:44;;;;;;;21.08;10.10;;;;;;;;;;4926988;28;107281;-64
2022/03/09 03:08:10;;;;;;;20.25;10.20;;;;;;;;;;4928269;28;107005;-64
2022/03/09 03:10:36;;;;;;;26.13;9.40;;;;;;;;;;4927391;28;107256;-64
2022/03/09 03:13:03;;;;;;;22.95;10.63;;;;;;;;;;4924467;28;107441;-64
2022/03/09 03:15:29;;;;;;;19.80;9.57;;;;;;;;;;4925230;28;107003;-64
2022/03/09 03:17:55;;;;;;;18.92;9.40;;;;;;;;;;4924627;28;107738;-65
2022/03/09 03:20:22;;;;;;;25.83;9.57;;;;;;;;;;4932305;28;106724;-65
2022/03/09 03:22:48;;;;;;;24.17;10.00;;;;;;;;;;4927810;28;106086;-64
2022/03/09 03:25:14;;;;;;;20.00;9.52;;;;;;;;;;4927513;28;107434;-64
2022/03/09 03:27:46;;;;;;;20.50;10.20;;;;;;;;;;4926654;28;106030;-64
2022/03/09 03:30:12;;;;;;;19.73;9.95;;;;;;;;;;4926879;28;106929;-63
2022/03/09 03:32:38;;;;;;;18.67;9.45;;;;;;;;;;4929593;28;107406;-64
2022/03/09 03:35:05;;;;;;;24.45;10.50;;;;;;;;;;4932189;28;106755;-63
2022/03/09 03:37:31;;;;;;;21.45;10.25;;;;;;;;;;4929847;28;106830;-64
2022/03/09 03:39:58;;;;;;;20.65;9.73;;;;;;;;;;4930239;28;106894;-63
2022/03/09 03:42:24;;;;;;;20.90;10.25;;;;;;;;;;4934221;28;106915;-63
2022/03/09 03:44:53;;;;;;;21.13;10.30;;;;;;;;;;4921455;28;106160;-63
2022/03/09 03:47:19;;;;;;;21.67;9.82;;;;;;;;;;4929272;28;105950;-63
2022/03/09 03:49:46;;;;;;;18.85;9.05;;;;;;;;;;4931414;28;107493;-63
2022/03/09 03:52:12;;;;;;;24.33;9.82;;;;;;;;;;4928088;28;106284;-63
2022/03/09 03:54:38;;;;;;;23.15;9.93;;;;;;;;;;4932374;28;106868;-63
2022/03/09 03:57:05;;;;;;;18.70;9.63;;;;;;;;;;4925290;28;107496;-63
2022/03/09 03:59:31;;;;;;;21.63;9.60;;;;;;;;;;4930031;28;107406;-63
2022/03/09 04:01:59;;;;;;;22.33;11.25;;;;;;;;;;4930439;28;105872;-63
2022/03/09 04:04:26;;;;;;;21.80;9.35;;;;;;;;;;4931935;28;106675;-66
2022/03/09 04:06:52;;;;;;;22.58;9.82;;;;;;;;;;4930545;28;105847;-65
2022/03/09 04:09:18;;;;;;;21.13;8.95;;;;;;;;;;4929888;28;108372;-66
2022/03/09 04:11:45;;;;;;;21.23;9.57;;;;;;;;;;4930204;28;107045;-65
2022/03/09 04:14:11;;;;;;;22.65;10.27;;;;;;;;;;4929895;28;107498;-63
2022/03/09 04:16:38;;;;;;;28.35;10.30;;;;;;;;;;4921002;28;106848;-65
2022/03/09 04:19:04;;;;;;;19.67;9.57;;;;;;;;;;4928666;28;107863;-65
2022/03/09 04:21:31;;;;;;;21.10;10.35;;;;;;;;;;4930312;28;106608;-63
2022/03/09 04:23:57;;;;;;;19.20;9.52;;;;;;;;;;4930182;28;105835;-64
2022/03/09 04:26:23;;;;;;;21.38;10.05;;;;;;;;;;4932503;28;107512;-63
2022/03/09 04:28:50;;;;;;;23.98;10.20;;;;;;;;;;4930703;28;107262;-64
2022/03/09 04:31:17;;;;;;;20.88;9.70;;;;;;;;;;4929554;28;107271;-64
2022/03/09 04:33:44;;;;;;;20.88;10.38;;;;;;;;;;4925082;28;106533;-63
2022/03/09 04:36:10;;;;;;;23.67;10.60;;;;;;;;;;4925449;28;106510;-66
2022/03/09 04:38:37;;;;;;;20.08;9.85;;;;;;;;;;4928900;28;107516;-64
2022/03/09 04:41:03;;;;;;;22.13;9.63;;;;;;;;;;4929290;28;106319;-65
2022/03/09 04:43:29;;;;;;;23.40;10.20;;;;;;;;;;4929662;28;106762;-64
2022/03/09 04:45:56;;;;;;;20.20;10.18;;;;;;;;;;4933323;28;107368;-65
2022/03/09 04:48:23;;;;;;;20.27;9.68;;;;;;;;;;4929768;28;107259;-65
2022/03/09 04:50:49;;;;;;;22.02;10.20;;;;;;;;;;4929912;28;106363;-65
2022/03/09 04:53:15;;;;;;;22.90;10.65;;;;;;;;;;4930587;28;107458;-65
2022/03/09 04:55:42;;;;;;;28.48;9.63;;;;;;;;;;4924683;28;106795;-66
2022/03/09 04:58:09;;;;;;;21.98;9.50;;;;;;;;;;4929256;28;107455;-65
2022/03/09 05:00:35;;;;;;;24.38;10.32;;;;;;;;;;4930789;28;106168;-64
2022/03/09 05:03:02;;;;;;;21.83;10.03;;;;;;;;;;4928514;28;106408;-68
2022/03/09 05:05:30;;;;;;;22.03;10.77;;;;;;;;;;4912345;28;106845;-63
2022/03/09 05:07:57;;;;;;;18.53;9.30;;;;;;;;;;4933148;28;106549;-64
2022/03/09 05:10:23;;;;;;;20.48;9.48;;;;;;;;;;4927969;28;106330;-63
2022/03/09 05:12:49;;;;;;;20.42;9.68;;;;;;;;;;4929215;28;105928;-63
2022/03/09 05:15:16;;;;;;;20.70;10.10;;;;;;;;;;4929722;28;106581;-64
2022/03/09 05:17:43;;;;;;;20.47;9.47;;;;;;;;;;4928838;28;107371;-63
2022/03/09 05:20:10;;;;;;;22.88;10.55;;;;;;;;;;4929126;28;105511;-64
2022/03/09 05:22:37;;;;;;;20.53;10.40;;;;;;;;;;4929520;28;106563;-63
2022/03/09 05:25:04;;;;;;;22.43;10.03;;;;;;;;;;4927320;28;109770;-63
2022/03/09 05:27:30;;;;;;;23.90;10.35;;;;;;;;;;4930023;28;107480;-63
2022/03/09 05:29:56;;;;;;;22.53;10.07;;;;;;;;;;4931676;28;108120;-64
2022/03/09 05:32:23;;;;;;;21.47;10.93;;;;;;;;;;4929590;28;108634;-63
2022/03/09 05:34:50;;;;;;;26.67;11.00;;;;;;;;;;4928988;28;106609;-64
2022/03/09 05:37:22;;;;;;;24.87;11.50;;;;;;;;;;4911582;28;107366;-63
2022/03/09 05:39:49;;;;;;;19.63;9.83;;;;;;;;;;4924350;28;106706;-63
2022/03/09 05:42:15;;;;;;;19.95;10.10;;;;;;;;;;4909427;28;106619;-64
2022/03/09 05:44:42;;;;;;;23.57;10.47;;;;;;;;;;4918114;28;107555;-63
2022/03/09 05:47:08;;;;;;;18.63;9.10;;;;;;;;;;4920958;28;107135;-64
2022/03/09 05:49:35;;;;;;;22.40;9.33;;;;;;;;;;4917687;28;107476;-63
2022/03/09 05:52:01;;;;;;;20.43;10.13;;;;;;;;;;4931957;28;106194;-66
2022/03/09 05:54:27;;;;;;;20.57;9.63;;;;;;;;;;4929818;28;106287;-63
2022/03/09 05:56:54;;;;;;;20.93;10.03;;;;;;;;;;4923776;28;106462;-64
2022/03/09 05:59:20;;;;;;;23.13;10.37;;;;;;;;;;4929085;28;106447;-65
2022/03/09 06:01:47;;;;;;;24.87;10.03;;;;;;;;;;4928622;28;106242;-65
2022/03/09 06:04:13;;;;;;;23.30;10.47;;;;;;;;;;4927878;28;106357;-64
2022/03/09 06:06:40;;;;;;;25.40;10.07;;;;;;;;;;4926573;28;107093;-65
2022/03/09 06:09:06;;;;;;;24.77;10.23;;;;;;;;;;4928090;28;106076;-63
2022/03/09 06:11:32;;;;;;;21.60;10.40;;;;;;;;;;4929142;28;106068;-65
2022/03/09 06:13:59;;;;;;;22.73;10.30;;;;;;;;;;4914260;28;106035;-64
2022/03/09 06:16:25;;;;;;;27.33;10.03;;;;;;;;;;4928279;28;108017;-67
2022/03/09 06:18:51;;;;;;;27.23;10.00;;;;;;;;;;4922014;28;106235;-64
2022/03/09 06:21:19;;;;;;;21.77;9.70;;;;;;;;;;4905463;28;107406;-64
2022/03/09 06:23:45;;;;;;;28.93;10.47;;;;;;;;;;4923014;28;107394;-64
2022/03/09 06:26:12;;;;;;;22.30;10.07;;;;;;;;;;4937738;28;106469;-64
2022/03/09 06:28:38;;;;;;;22.47;10.37;;;;;;;;;;4932542;28;106248;-64
2022/03/09 06:31:04;;;;;;;23.27;9.80;;;;;;;;;;4927627;28;107348;-64
2022/03/09 06:33:31;;;;;;;23.33;10.10;;;;;;;;;;4928281;28;105867;-63
2022/03/09 06:35:57;;;;;;;23.73;10.80;;;;;;;;;;4931447;28;106772;-64
2022/03/09 06:38:23;;;;;;;24.17;10.97;;;;;;;;;;4929110;28;105965;-64
2022/03/09 06:40:50;;;;;;;27.50;10.93;;;;;;;;;;4928931;28;107978;-63
2022/03/09 06:43:16;;;;;;;28.40;11.57;;;;;;;;;;4927403;28;107912;-63
2022/03/09 06:45:43;;;;;;;26.03;10.10;;;;;;;;;;4928792;28;106569;-63
2022/03/09 06:48:10;;;;;;;26.03;11.83;;;;;;;;;;4927422;28;106861;-63
2022/03/09 06:50:36;;;;;;;23.80;10.77;;;;;;;;;;4927792;28;107807;-63
2022/03/09 06:53:02;;;;;;;27.80;11.70;;;;;;;;;;4910742;28;106637;-64
2022/03/09 06:55:29;;;;;;;29.17;10.73;;;;;;;;;;4931610;28;105916;-64
2022/03/09 06:57:55;;;;;;;29.97;10.70;;;;;;;;;;4928464;28;107121;-65
2022/03/09 07:00:21;;;;;;;23.37;10.33;;;;;;;;;;4911047;28;108579;-64
2022/03/09 07:02:48;;;;;;;28.10;10.53;;;;;;;;;;4926830;28;107743;-63
2022/03/09 07:05:15;;;;;;;24.33;10.27;;;;;;;;;;4924794;28;109190;-64
2022/03/09 07:07:41;;;;;;;25.57;9.70;;;;;;;;;;4930926;28;105845;-63
2022/03/09 07:10:11;;;;;;;22.53;10.13;;;;;;;;;;4930543;28;107730;-64
2022/03/09 07:12:43;;;;;;;21.57;10.60;;;;;;;;;;4929757;28;107142;-65
2022/03/09 07:15:10;;;;;;;24.07;10.10;;;;;;;;;;4930983;28;107249;-62
2022/03/09 07:17:37;;;;;;;23.08;9.90;;;;;;;;;;4932604;28;106286;-63
2022/03/09 07:20:04;;;;;;;23.88;10.32;;;;;;;;;;4931455;28;107033;-63
2022/03/09 07:22:37;;;;;;;20.20;10.18;;;;;;;;;;4914057;28;106911;-63
2022/03/09 07:25:03;;;;;;;23.77;10.60;;;;;;;;;;4931948;28;106047;-66
2022/03/09 07:27:29;;;;;;;24.27;10.73;;;;;;;;;;4929344;28;109175;-63
2022/03/09 07:29:56;;;;;;;20.52;10.55;;;;;;;;;;4930243;28;107316;-63
2022/03/09 07:32:22;;;;;;;22.63;10.35;;;;;;;;;;4929863;28;106789;-63
2022/03/09 07:35:09;;;;;;;22.15;10.45;;;;;;;;;;4924732;28;107330;-64
2022/03/09 07:37:36;;;;;;;21.20;10.75;;;;;;;;;;4931351;28;106342;-64
2022/03/09 07:40:04;;;;;;;29.80;9.85;;;;;;;;;;4933661;28;106198;-64
2022/03/09 07:42:30;;;;;;;26.20;10.50;;;;;;;;;;4930496;28;107357;-63
2022/03/09 07:45:00;;;;;;;19.58;9.10;;;;;;;;;;4929000;28;106411;-64
2022/03/09 07:47:27;;;;;;;20.92;10.50;;;;;;;;;;4928186;28;106740;-64
2022/03/09 07:49:53;;;;;;;20.48;10.10;;;;;;;;;;4930111;28;107050;-64
2022/03/09 07:52:20;;;;;;;22.17;10.35;;;;;;;;;;4928669;28;107797;-63
2022/03/09 07:54:46;;;;;;;22.35;9.48;;;;;;;;;;4930031;28;106162;-63
2022/03/09 07:57:12;;;;;;;17.05;8.30;;;;;;;;;;4925660;28;107471;-64
2022/03/09 07:59:39;;;;;;;17.25;7.63;;;;;;;;;;4930745;28;106271;-64
2022/03/09 08:02:05;;;;;;;18.67;8.68;;;;;;;;;;4930670;28;106843;-64
2022/03/09 08:04:32;;;;;;;19.83;8.82;;;;;;;;;;4930312;28;105994;-63
2022/03/09 08:06:58;;;;;;;21.10;8.82;;;;;;;;;;4924380;28;107335;-63
2022/03/09 08:09:26;;;;;;;17.58;8.90;;;;;;;;;;4927618;28;107279;-70
2022/03/09 08:11:52;;;;;;;17.15;8.38;;;;;;;;;;4930601;28;106407;-63
2022/03/09 08:14:18;;;;;;;18.70;8.60;;;;;;;;;;4928406;28;107371;-63
2022/03/09 08:16:47;;;;;;;17.17;7.68;;;;;;;;;;4926501;28;107865;-63
2022/03/09 08:19:13;;;;;;;19.40;8.40;;;;;;;;;;4927567;28;106815;-63
2022/03/09 08:21:39;;;;;;;14.82;7.90;;;;;;;;;;4929954;28;106762;-65
2022/03/09 08:24:06;;;;;;;18.88;8.18;;;;;;;;;;4926197;28;106871;-64
2022/03/09 08:26:32;;;;;;;16.70;8.63;;;;;;;;;;4929946;28;107376;-66
2022/03/09 08:28:59;;;;;;;15.40;7.72;;;;;;;;;;4929940;28;106362;-63
2022/03/09 08:31:26;;;;;;;17.38;7.75;;;;;;;;;;4929655;28;107096;-64
2022/03/09 08:33:52;;;;;;;15.35;7.88;;;;;;;;;;4930448;28;106737;-64
2022/03/09 08:36:19;;;;;;;17.70;7.95;;;;;;;;;;4928733;28;107579;-63
2022/03/09 08:38:45;;;;;;;13.55;7.70;;;;;;;;;;4930900;28;107577;-63
2022/03/09 08:41:11;;;;;;;14.90;7.35;;;;;;;;;;4927517;28;108030;-63
2022/03/09 08:43:37;;;;;;;15.77;7.30;;;;;;;;;;4926975;28;107456;-64
2022/03/09 08:46:04;;;;;;;14.43;7.50;;;;;;;;;;4927143;28;108215;-63
2022/03/09 08:48:32;;;;;;;18.13;7.95;;;;;;;;;;4925480;28;107018;-63
2022/03/09 08:50:58;;;;;;;17.48;8.13;;;;;;;;;;4929204;28;106427;-64
2022/03/09 08:53:25;;;;;;;13.40;7.75;;;;;;;;;;4927357;28;107412;-63
2022/03/09 08:55:51;;;;;;;20.08;8.23;;;;;;;;;;4929216;28;107836;-64
2022/03/09 08:58:20;;;;;;;17.70;7.72;;;;;;;;;;4928253;28;107061;-64
2022/03/09 09:00:46;;;;;;;14.40;7.80;;;;;;;;;;4925421;28;106448;-62
2022/03/09 09:03:12;;;;;;;17.40;8.70;;;;;;;;;;4921939;28;106165;-64
2022/03/09 09:05:39;;;;;;;17.00;8.18;;;;;;;;;;4932553;28;105841;-64
2022/03/09 09:08:06;;;;;;;22.77;8.65;;;;;;;;;;4929226;28;106359;-63
2022/03/09 09:10:36;;;;;;;13.85;7.85;;;;;;;;;;4928019;28;106831;-63
2022/03/09 09:13:05;;;;;;;17.15;8.45;;;;;;;;;;4929325;28;106999;-63
2022/03/09 09:15:31;;;;;;;18.15;8.40;;;;;;;;;;4928110;28;108353;-63
2022/03/09 09:17:59;;;;;;;15.32;7.82;;;;;;;;;;4928760;28;107252;-63
2022/03/09 09:20:45;;;;;;;16.25;8.77;;;;;;;;;;4929571;28;106215;-64
2022/03/09 09:23:11;;;;;;;17.08;8.55;;;;;;;;;;4922853;28;107372;-64
2022/03/09 09:25:38;;;;;;;20.98;8.07;;;;;;;;;;4928588;28;106742;-63
2022/03/09 09:28:04;;;;;;;18.58;8.73;;;;;;;;;;4932529;28;106583;-63
2022/03/09 09:30:31;;;;;;;16.25;8.43;;;;;;;;;;4926892;28;106225;-63
2022/03/09 09:32:58;;;;;;;17.48;9.02;;;;;;;;;;4928504;28;105791;-64
2022/03/09 09:35:24;;;;;;;19.77;8.55;;;;;;;;;;4899122;28;107783;-63
2022/03/09 09:37:51;;;;;;;18.58;8.23;;;;;;;;;;4929542;28;106853;-63
2022/03/09 09:40:17;;;;;;;17.13;8.82;;;;;;;;;;4926233;28;106762;-64
2022/03/09 09:42:44;;;;;;;16.70;7.95;;;;;;;;;;4928218;28;109074;-63
2022/03/09 09:45:19;;;;;;;19.17;9.23;;;;;;;;;;4893535;28;106473;-63
2022/03/09 09:47:49;;;;;;;18.38;9.35;;;;;;;;;;4928663;28;106320;-63
2022/03/09 09:50:17;;;;;;;21.52;9.05;;;;;;;;;;4931104;28;107330;-64
2022/03/09 09:52:43;;;;;;;23.23;9.35;;;;;;;;;;4902118;28;106353;-64
2022/03/09 09:55:10;;;;;;;17.50;9.10;;;;;;;;;;4927758;28;106757;-64
2022/03/09 09:57:37;;;;;;;22.52;9.32;;;;;;;;;;4928889;28;106963;-63
2022/03/09 10:00:04;;;;;;;17.55;8.32;;;;;;;;;;4927493;28;108405;-63
2022/03/09 10:02:39;;;;;;;15.85;8.93;;;;;;;;;;4927457;28;106187;-64
2022/03/09 10:05:06;;;;;;;24.38;9.80;;;;;;;;;;4928615;28;106016;-64
2022/03/09 10:07:33;;;;;;;16.88;9.02;;;;;;;;;;4922221;28;106948;-64
2022/03/09 10:09:59;;;;;;;17.83;9.20;;;;;;;;;;4927391;28;108009;-64
2022/03/09 10:12:28;;;;;;;17.98;9.13;;;;;;;;;;4932205;28;106885;-65
2022/03/09 10:14:59;;;;;;;19.75;9.77;;;;;;;;;;4927739;28;107312;-64
2022/03/09 10:17:27;;;;;;;20.90;10.13;;;;;;;;;;4927801;28;106112;-64
2022/03/09 10:19:55;;;;;;;20.58;9.27;;;;;;;;;;4911163;28;106767;-64
2022/03/09 10:22:32;;;;;;;21.08;10.05;;;;;;;;;;4927293;28;107455;-64
2022/03/09 10:25:19;;;;;;;23.35;9.75;;;;;;;;;;4926801;28;106099;-64
2022/03/09 10:27:47;;;;;;;23.40;10.20;;;;;;;;;;4920902;28;107710;-65
2022/03/09 10:30:15;;;;;;;23.42;10.43;;;;;;;;;;4904944;28;107496;-65
2022/03/09 10:32:41;;;;;;;25.85;10.93;;;;;;;;;;4919369;28;106283;-65
2022/03/09 10:35:08;;;;;;;20.52;10.32;;;;;;;;;;4930455;28;106409;-65
2022/03/09 10:37:41;;;;;;;24.00;11.27;;;;;;;;;;4926913;28;106257;-65
2022/03/09 10:40:16;;;;;;;24.27;10.85;;;;;;;;;;4928010;28;107490;-66
2022/03/09 10:42:42;;;;;;;21.70;10.60;;;;;;;;;;4931824;28;107247;-65
2022/03/09 10:45:09;;;;;;;23.98;11.48;;;;;;;;;;4930983;28;106701;-65
2022/03/09 10:47:40;;;;;;;26.00;10.80;;;;;;;;;;4930856;28;106848;-65
2022/03/09 10:50:19;;;;;;;26.02;11.52;;;;;;;;;;4929875;28;107488;-65
2022/03/09 10:52:45;;;;;;;26.10;11.70;;;;;;;;;;4931706;28;106782;-64
2022/03/09 10:55:20;;;;;;;24.30;11.70;;;;;;;;;;4930984;28;107393;-65
2022/03/09 10:57:47;;;;;;;27.23;12.13;;;;;;;;;;4934519;28;106439;-64
2022/03/09 11:00:13;;;;;;;28.05;11.80;;;;;;;;;;4930925;28;107103;-65
2022/03/09 11:02:50;;;;;;;21.52;10.63;;;;;;;;;;4930908;28;106418;-64
2022/03/09 11:05:17;;;;;;;23.42;11.98;;;;;;;;;;4931391;28;106245;-64
2022/03/09 11:07:44;;;;;;;24.63;12.10;;;;;;;;;;4929000;28;105986;-65
2022/03/09 11:10:13;;;;;;;26.13;13.63;;;;;;;;;;4930016;28;106390;-65
2022/03/09 11:12:39;;;;;;;23.25;12.45;;;;;;;;;;4930944;28;106132;-65
2022/03/09 11:15:06;;;;;;;28.17;14.20;;;;;;;;;;4929813;28;106999;-64
2022/03/09 11:17:33;;;;;;;23.10;12.55;;;;;;;;;;4933443;28;107425;-65
2022/03/09 11:19:59;;;;;;;23.10;12.73;;;;;;;;;;4912963;28;106849;-65
2022/03/09 11:22:26;;;;;;;21.63;12.27;;;;;;;;;;4930329;28;108621;-65
2022/03/09 11:24:53;;;;;;;22.30;12.35;;;;;;;;;;4926504;28;107142;-65
2022/03/09 11:27:19;;;;;;;23.42;13.13;;;;;;;;;;4924980;28;106901;-64
2022/03/09 11:29:46;;;;;;;24.48;13.18;;;;;;;;;;4926647;28;107392;-65
2022/03/09 11:32:14;;;;;;;20.80;11.63;;;;;;;;;;4928048;28;106654;-64
2022/03/09 11:34:42;;;;;;;24.23;11.68;;;;;;;;;;4931344;28;106707;-64
2022/03/09 11:37:10;;;;;;;25.02;12.65;;;;;;;;;;4929575;28;107130;-65
2022/03/09 11:39:37;;;;;;;27.10;12.73;;;;;;;;;;4933946;28;106412;-64
2022/03/09 11:42:19;;;;;;;27.48;13.77;;;;;;;;;;4928853;28;107658;-64
2022/03/09 11:44:54;;;;;;;27.13;14.07;;;;;;;;;;4930618;28;107283;-64
2022/03/09 11:47:20;;;;;;;28.17;14.15;;;;;;;;;;4926416;28;106559;-64
2022/03/09 11:49:49;;;;;;;24.75;13.95;;;;;;;;;;4929299;28;107530;-64
2022/03/09 11:52:17;;;;;;;28.88;13.43;;;;;;;;;;4929811;28;106300;-64
2022/03/09 11:54:48;;;;;;;25.40;13.88;;;;;;;;;;4929774;28;106962;-65
2022/03/09 11:57:15;;;;;;;25.60;13.57;;;;;;;;;;4928001;28;106397;-65
2022/03/09 12:00:01;;;;;;;23.30;13.27;;;;;;;;;;4928550;28;107652;-65
2022/03/09 12:02:48;;;;;;;27.67;14.15;;;;;;;;;;4931545;28;106242;-65
2022/03/09 12:05:34;;;;;;;27.38;13.93;;;;;;;;;;4926277;28;106162;-65
2022/03/09 12:08:00;;;;;;;26.38;14.85;;;;;;;;;;4928975;28;107254;-65
2022/03/09 12:10:40;;;;;;;28.10;15.05;;;;;;;;;;4926390;28;106537;-66
2022/03/09 12:13:17;;;;;;;27.65;14.63;;;;;;;;;;4928792;28;106121;-65
2022/03/09 12:16:02;;;;;;;31.98;14.77;;;;;;;;;;4929162;28;107020;-65
2022/03/09 12:18:48;;;;;;;24.58;13.82;;;;;;;;;;4923341;28;107419;-66
2022/03/09 12:21:17;;;;;;;23.83;14.57;;;;;;;;;;4928323;28;108205;-67
2022/03/09 12:24:02;;;;;;;27.00;14.85;;;;;;;;;;4930295;28;107063;-66
2022/03/09 12:26:42;;;;;;;27.00;15.23;;;;;;;;;;4930317;28;107854;-65
2022/03/09 12:29:17;;;;;;;27.35;15.50;;;;;;;;;;4927204;28;107458;-66
2022/03/09 12:31:44;;;;;;;27.10;15.18;;;;;;;;;;4927068;28;108096;-65
2022/03/09 12:34:22;;;;;;;27.20;15.50;;;;;;;;;;4929435;28;106642;-65
2022/03/09 12:36:49;;;;;;;30.27;16.57;;;;;;;;;;4929318;28;107570;-65
2022/03/09 12:39:16;;;;;;;28.13;15.65;;;;;;;;;;4928493;28;108078;-65
2022/03/09 12:41:44;;;;;;;29.85;15.70;;;;;;;;;;4929845;28;106784;-65
2022/03/09 12:44:12;;;;;;;27.55;16.00;;;;;;;;;;4927151;28;107439;-65
2022/03/09 12:46:40;;;;;;;26.52;15.80;;;;;;;;;;4926604;28;108283;-65
2022/03/09 12:49:15;;;;;;;27.27;16.35;;;;;;;;;;4932884;28;106711;-65
2022/03/09 12:51:51;;;;;;;29.77;17.02;;;;;;;;;;4925596;28;107313;-66
2022/03/09 12:54:35;;;;;;;25.67;16.05;;;;;;;;;;4916776;28;106169;-66
2022/03/09 12:57:12;;;;;;;31.83;17.50;;;;;;;;;;4925102;28;107356;-65
2022/03/09 12:59:40;;;;;;;30.20;17.27;;;;;;;;;;4929058;28;108267;-65
2022/03/09 13:02:07;;;;;;;27.42;16.75;;;;;;;;;;4928365;28;106799;-66
2022/03/09 13:04:34;;;;;;;28.40;17.70;;;;;;;;;;4928489;28;106189;-64
2022/03/09 13:07:13;;;;;;;35.33;18.25;;;;;;;;;;4925428;28;107485;-63
2022/03/09 13:09:43;;;;;;;30.80;16.65;;;;;;;;;;4914496;28;108105;-65
2022/03/09 13:12:12;;;;;;;32.15;18.00;;;;;;;;;;4928234;28;108287;-66
2022/03/09 13:14:41;;;;;;;35.17;18.35;;;;;;;;;;4927706;28;107082;-63
2022/03/09 13:17:08;;;;;;;28.35;18.30;;;;;;;;;;4925746;28;107591;-65
2022/03/09 13:19:36;;;;;;;30.50;17.55;;;;;;;;;;4927128;28;108608;-65
2022/03/09 13:22:04;;;;;;;27.13;17.55;;;;;;;;;;4927619;28;107983;-67
2022/03/09 13:24:30;;;;;;;34.58;18.27;;;;;;;;;;4925193;28;108784;-64
2022/03/09 13:26:57;;;;;;;29.05;17.92;;;;;;;;;;4927535;28;107735;-63
2022/03/09 13:29:24;;;;;;;33.60;18.27;;;;;;;;;;4926292;28;107648;-65
2022/03/09 13:31:58;;;;;;;27.85;17.67;;;;;;;;;;4927892;28;108263;-65
2022/03/09 13:34:26;;;;;;;29.27;17.92;;;;;;;;;;4927661;28;107650;-64
2022/03/09 13:37:02;;;;;;;25.47;17.47;;;;;;;;;;4926442;28;108549;-65
2022/03/09 13:39:45;;;;;;;30.10;18.30;;;;;;;;;;4919806;28;110634;-65
2022/03/09 13:42:21;;;;;;;27.42;18.52;;;;;;;;;;4924446;28;110410;-66
2022/03/09 13:45:05;;;;;;;33.45;18.35;;;;;;;;;;4925824;28;109862;-64
2022/03/09 13:47:44;;;;;;;28.65;17.90;;;;;;;;;;4921201;28;110132;-66
2022/03/09 13:50:10;;;;;;;;;;;;;;;;;;4921083;28;109312;-65
2022/03/09 13:52:37;;;;;;;28.63;18.63;;;;;;;;;;4920239;28;136859;-65
2022/03/09 13:55:05;;;;;;;28.98;17.80;;;;;;;;;;4923117;28;110652;-64
2022/03/09 13:57:31;;;;;;;25.95;17.20;;;;;;;;;;4922631;28;109751;-64
2022/03/09 13:59:59;;;;;;;27.83;17.77;;;;;;;;;;4901929;28;110451;-64
2022/03/09 14:02:26;;;;;;;32.40;18.73;;;;;;;;;;4925283;28;108875;-68
2022/03/09 14:04:53;;;;;;;28.20;18.70;;;;;;;;;;4925314;28;109318;-64
2022/03/09 14:07:39;;;;;;;29.67;18.33;;;;;;;;;;4925057;28;110195;-65
2022/03/09 14:10:26;;;;;;;28.80;18.20;;;;;;;;;;4924555;28;109173;-64
2022/03/09 14:12:54;;;;;;;30.80;19.33;;;;;;;;;;4925134;28;110284;-64
2022/03/09 14:15:22;;;;;;;31.25;19.55;;;;;;;;;;4919703;28;109700;-64
2022/03/09 14:17:49;;;;;;;28.70;18.83;;;;;;;;;;4918093;28;111529;-64
2022/03/09 14:20:16;;;;;;;27.38;18.95;;;;;;;;;;4915830;28;110363;-64